Time;durP1;ratioP1;P1;durP2;ratioP2;P2;SDS_P1;SDS_P2;PMS_P1;PMS_P2;Temp;Humidity;BMP_temperature;BMP_pressure;BME280_temperature;BME280_humidity;BME280_pressure;Samples;Min_cycle;Max_cycle;Signal;HPM_P1;HPM_P2
2022/02/19 00:01:31;;;;;;;;;;;;;;;;;;5083906;28;19919;-78
2022/02/19 00:03:57;;;;;;;;;;;;;;;;;;5092872;28;20415;-77
2022/02/19 00:06:23;;;;;;;;;;;;;;;;;;5094410;28;19920;-77
2022/02/19 00:08:48;;;;;;;;;;;;;;;;;;5094487;28;19916;-77
2022/02/19 00:11:16;;;;;;;;;;;;;;;;;;5094147;28;19924;-76
2022/02/19 00:13:41;;;;;;;;;;;;;;;;;;5093957;28;19927;-77
2022/02/19 00:16:07;;;;;;;;;;;;;;;;;;5092907;28;19916;-77
2022/02/19 00:18:33;;;;;;;;;;;;;;;;;;5092654;28;19916;-77
2022/02/19 00:20:58;;;;;;;;;;;;;;;;;;5094069;28;19965;-77
2022/02/19 00:23:28;;;;;;;;;;;;;;;;;;5094204;28;19916;-77
2022/02/19 00:25:53;;;;;;;;;;;;;;;;;;5093899;28;19912;-77
2022/02/19 00:28:20;;;;;;;;;;;;;;;;;;5093690;28;20010;-77
2022/02/19 00:30:46;;;;;;;;;;;;;;;;;;5092456;28;20053;-77
2022/02/19 00:33:11;;;;;;;;;;;;;;;;;;5092695;28;19946;-77
2022/02/19 00:35:36;;;;;;;;;;;;;;;;;;5092550;28;19966;-77
2022/02/19 00:38:02;;;;;;;;;;;;;;;;;;5093257;28;20001;-77
2022/02/19 00:40:27;;;;;;;;;;;;;;;;;;5092291;28;19923;-76
2022/02/19 00:42:53;;;;;;;;;;;;;;;;;;5093409;28;19916;-77
2022/02/19 00:45:19;;;;;;;;;;;;;;;;;;5092021;28;19922;-77
2022/02/19 00:47:44;;;;;;;;;;;;;;;;;;5094686;28;20015;-76
2022/02/19 00:50:10;;;;;;;;;;;;;;;;;;5096471;28;19916;-77
2022/02/19 00:52:35;;;;;;;;;;;;;;;;;;5097489;28;19943;-77
2022/02/19 00:55:01;;;;;;;;;;;;;;;;;;5096668;28;19930;-77
2022/02/19 00:57:26;;;;;;;;;;;;;;;;;;5096545;28;19918;-77
2022/02/19 00:59:51;;;;;;;;;;;;;;;;;;5097252;28;19927;-76
2022/02/19 01:02:16;;;;;;;;;;;;;;;;;;5096086;28;19984;-77
2022/02/19 01:04:55;;;;;;;;;;;;;;;;;;5096330;28;19959;-77
2022/02/19 01:07:24;;;;;;;;;;;;;;;;;;5096048;28;19916;-77
2022/02/19 01:09:49;;;;;;;;;;;;;;;;;;5096125;28;19916;-77
2022/02/19 01:12:15;;;;;;;;;;;;;;;;;;5079345;28;19919;-77
2022/02/19 01:14:40;;;;;;;;;;;;;;;;;;5097440;28;19924;-77
2022/02/19 01:17:06;;;;;;;;;;;;;;;;;;5096303;28;20354;-77
2022/02/19 01:19:31;;;;;;;;;;;;;;;;;;5096345;28;19939;-77
2022/02/19 01:21:58;;;;;;;;;;;;;;;;;;5096799;28;19975;-77
2022/02/19 01:24:24;;;;;;;;;;;;;;;;;;5095668;28;20003;-77
2022/02/19 01:26:56;;;;;;;;;;;;;;;;;;5096026;28;19916;-77
2022/02/19 01:29:21;;;;;;;;;;;;;;;;;;5096218;28;19922;-77
2022/02/19 01:31:47;;;;;;;;;;;;;;;;;;5095110;28;19938;-77
2022/02/19 01:34:12;;;;;;;;;;;;;;;;;;5095661;28;19916;-77
2022/02/19 01:36:37;;;;;;;;;;;;;;;;;;5095336;28;19920;-76
2022/02/19 01:39:03;;;;;;;;;;;;;;;;;;5096830;28;19916;-76
2022/02/19 01:41:28;;;;;;;;;;;;;;;;;;5095323;28;20018;-77
2022/02/19 01:43:55;;;;;;;;;;;;;;;;;;5095497;28;19962;-77
2022/02/19 01:46:21;;;;;;;;;;;;;;;;;;5096937;28;19958;-77
2022/02/19 01:48:47;;;;;;;;;;;;;;;;;;5095669;28;19959;-77
2022/02/19 01:51:13;;;;;;;;;;;;;;;;;;5095369;28;19951;-76
2022/02/19 01:53:39;;;;;;;;;;;;;;;;;;5095395;28;19920;-77
2022/02/19 01:56:13;;;;;;;;;;;;;;;;;;5095048;28;19920;-77
2022/02/19 01:58:46;;;;;;;;;;;;;;;;;;5094924;28;19923;-77
2022/02/19 02:01:11;;;;;;;;;;;;;;;;;;5096463;28;19916;-77
2022/02/19 02:03:56;;;;;;;;;;;;;;;;;;5096491;28;19916;-77
2022/02/19 02:06:30;;;;;;;;;;;;;;;;;;5096229;28;19923;-77
2022/02/19 02:08:59;;;;;;;;;;;;;;;;;;5095307;28;20058;-77
2022/02/19 02:11:28;;;;;;;;;;;;;;;;;;5078552;28;19916;-77
2022/02/19 02:13:57;;;;;;;;;;;;;;;;;;5078931;28;19920;-76
2022/02/19 02:16:37;;;;;;;;;;;;;;;;;;5094919;28;20267;-76
2022/02/19 02:19:08;;;;;;;;;;;;;;;;;;5094157;28;19920;-77
2022/02/19 02:21:35;;;;;;;;;;;;;;;;;;5095137;28;20002;-76
2022/02/19 02:24:00;;;;;;;;;;;;;;;;;;5095062;28;20357;-76
2022/02/19 02:26:27;;;;;;;;;;;;;;;;;;5096078;28;19916;-76
2022/02/19 02:28:52;;;;;;;;;;;;;;;;;;5096055;28;20370;-76
2022/02/19 02:31:18;;;;;;;;;;;;;;;;;;5094880;28;19936;-77
2022/02/19 02:33:44;;;;;;;;;;;;;;;;;;5094732;28;19977;-77
2022/02/19 02:36:13;;;;;;;;;;;;;;;;;;5093535;28;19965;-76
2022/02/19 02:38:47;;;;;;;;;;;;;;;;;;5094851;28;20365;-77
2022/02/19 02:41:13;;;;;;;;;;;;;;;;;;5094706;28;19923;-76
2022/02/19 02:43:38;;;;;;;;;;;;;;;;;;5077735;28;19995;-76
2022/02/19 02:46:04;;;;;;;;;;;;;;;;;;5094405;28;19923;-76
2022/02/19 02:48:30;;;;;;;;;;;;;;;;;;5094348;28;20007;-76
2022/02/19 02:50:56;;;;;;;;;;;;;;;;;;5094235;28;19963;-77
2022/02/19 02:53:26;;;;;;;;;;;;;;;;;;5095699;28;19927;-77
2022/02/19 02:55:52;;;;;;;;;;;;;;;;;;5094425;28;19937;-77
2022/02/19 02:58:17;;;;;;;;;;;;;;;;;;5093749;28;19916;-77
2022/02/19 03:00:42;;;;;;;;;;;;;;;;;;5094192;28;19916;-76
2022/02/19 03:03:08;;;;;;;;;;;;;;;;;;5095438;28;20263;-76
2022/02/19 03:05:33;;;;;;;;;;;;;;;;;;5092942;28;19924;-77
2022/02/19 03:07:59;;;;;;;;;;;;;;;;;;5094067;28;19961;-76
2022/02/19 03:10:28;;;;;;;;;;;;;;;;;;5094310;28;20345;-77
2022/02/19 03:12:53;;;;;;;;;;;;;;;;;;5093848;28;20010;-76
2022/02/19 03:15:19;;;;;;;;;;;;;;;;;;5095068;28;19916;-76
2022/02/19 03:17:47;;;;;;;;;;;;;;;;;;5093776;28;19916;-76
2022/02/19 03:20:14;;;;;;;;;;;;;;;;;;5093912;28;19920;-76
2022/02/19 03:22:39;;;;;;;;;;;;;;;;;;5076860;28;19922;-77
2022/02/19 03:25:06;;;;;;;;;;;;;;;;;;5093553;28;20002;-77
2022/02/19 03:27:32;;;;;;;;;;;;;;;;;;5094875;28;19926;-77
2022/02/19 03:30:06;;;;;;;;;;;;;;;;;;5093100;28;19916;-77
2022/02/19 03:32:32;;;;;;;;;;;;;;;;;;5093557;28;19916;-77
2022/02/19 03:34:58;;;;;;;;;;;;;;;;;;5093311;28;20296;-76
2022/02/19 03:37:24;;;;;;;;;;;;;;;;;;5093384;28;19923;-77
2022/02/19 03:39:54;;;;;;;;;;;;;;;;;;5076491;28;19916;-77
2022/02/19 03:42:22;;;;;;;;;;;;;;;;;;5093530;28;20049;-77
2022/02/19 03:44:47;;;;;;;;;;;;;;;;;;5093408;28;19995;-77
2022/02/19 03:47:16;;;;;;;;;;;;;;;;;;5093456;28;20005;-77
2022/02/19 03:49:57;;;;;;;;;;;;;;;;;;5093277;28;19916;-77
2022/02/19 03:52:23;;;;;;;;;;;;;;;;;;5092882;28;19927;-77
2022/02/19 03:54:49;;;;;;;;;;;;;;;;;;5092709;28;19931;-76
2022/02/19 03:57:14;;;;;;;;;;;;;;;;;;5094385;28;19916;-77
2022/02/19 03:59:40;;;;;;;;;;;;;;;;;;5092534;28;19919;-77
2022/02/19 04:02:06;;;;;;;;;;;;;;;;;;5092287;28;19916;-77
2022/02/19 04:04:32;;;;;;;;;;;;;;;;;;5093099;28;20277;-77
2022/02/19 04:06:58;;;;;;;;;;;;;;;;;;5092862;28;20366;-77
2022/02/19 04:09:56;;;;;;;;;;;;;;;;;;5082473;28;19922;-77
2022/02/19 04:12:22;;;;;;;;;;;;;;;;;;5091911;28;19995;-77
2022/02/19 04:14:51;;;;;;;;;;;;;;;;;;5076484;28;19931;-77
2022/02/19 04:17:16;;;;;;;;;;;;;;;;;;5092366;28;19916;-77
2022/02/19 04:19:42;;;;;;;;;;;;;;;;;;5092752;28;19943;-77
2022/02/19 04:22:08;;;;;;;;;;;;;;;;;;5093808;28;19951;-77
2022/02/19 04:24:33;;;;;;;;;;;;;;;;;;5092418;28;20280;-77
2022/02/19 04:27:09;;;;;;;;;;;;;;;;;;5092572;28;19977;-77
2022/02/19 04:29:36;;;;;;;;;;;;;;;;;;5092929;28;19916;-77
2022/02/19 04:32:03;;;;;;;;;;;;;;;;;;5092067;28;19960;-77
2022/02/19 04:34:44;;;;;;;;;;;;;;;;;;5092755;28;19920;-77
2022/02/19 04:37:10;;;;;;;;;;;;;;;;;;5092668;28;20007;-77
2022/02/19 04:39:39;;;;;;;;;;;;;;;;;;5092661;28;20014;-77
2022/02/19 04:42:11;;;;;;;;;;;;;;;;;;5092516;28;20434;-77
2022/02/19 04:44:37;;;;;;;;;;;;;;;;;;5092578;28;20007;-77
2022/02/19 04:47:04;;;;;;;;;;;;;;;;;;5092511;28;19916;-76
2022/02/19 04:49:29;;;;;;;;;;;;;;;;;;5093866;28;20392;-76
2022/02/19 04:51:58;;;;;;;;;;;;;;;;;;5092042;28;20008;-77
2022/02/19 04:54:23;;;;;;;;;;;;;;;;;;5075663;28;20378;-77
2022/02/19 04:56:49;;;;;;;;;;;;;;;;;;5092433;28;19923;-77
2022/02/19 04:59:14;;;;;;;;;;;;;;;;;;5092563;28;20010;-77
2022/02/19 05:01:42;;;;;;;;;;;;;;;;;;5091089;28;19916;-77
2022/02/19 05:04:12;;;;;;;;;;;;;;;;;;5092322;28;20379;-77
2022/02/19 05:06:52;;;;;;;;;;;;;;;;;;5093631;28;19917;-77
2022/02/19 05:09:18;;;;;;;;;;;;;;;;;;5091933;28;20003;-76
2022/02/19 05:11:48;;;;;;;;;;;;;;;;;;5091952;28;19916;-77
2022/02/19 05:14:14;;;;;;;;;;;;;;;;;;5092197;28;20015;-77
2022/02/19 05:16:39;;;;;;;;;;;;;;;;;;5091996;28;19916;-77
2022/02/19 05:19:09;;;;;;;;;;;;;;;;;;5092227;28;19916;-77
2022/02/19 05:21:37;;;;;;;;;;;;;;;;;;5092017;28;19922;-77
2022/02/19 05:24:03;;;;;;;;;;;;;;;;;;5092332;28;19916;-76
2022/02/19 05:26:38;;;;;;;;;;;;;;;;;;5092357;28;20306;-76
2022/02/19 05:29:06;;;;;;;;;;;;;;;;;;5092117;28;19981;-77
2022/02/19 05:31:31;;;;;;;;;;;;;;;;;;5091212;28;20361;-76
2022/02/19 05:34:04;;;;;;;;;;;;;;;;;;5094154;28;20385;-76
2022/02/19 05:36:31;;;;;;;;;;;;;;;;;;5095856;28;20418;-76
2022/02/19 05:39:01;;;;;;;;;;;;;;;;;;5095358;28;19916;-76
2022/02/19 05:41:29;;;;;;;;;;;;;;;;;;5095660;28;19922;-77
2022/02/19 05:43:59;;;;;;;;;;;;;;;;;;5095559;28;19916;-76
2022/02/19 05:46:25;;;;;;;;;;;;;;;;;;5092661;28;19980;-77
2022/02/19 05:48:50;;;;;;;;;;;;;;;;;;5096828;28;20437;-77
2022/02/19 05:51:28;;;;;;;;;;;;;;;;;;5094729;28;20270;-77
2022/02/19 05:53:58;;;;;;;;;;;;;;;;;;5095172;28;19924;-76
2022/02/19 05:56:24;;;;;;;;;;;;;;;;;;5095537;28;19923;-76
2022/02/19 05:58:50;;;;;;;;;;;;;;;;;;5095617;28;19916;-76
2022/02/19 06:01:21;;;;;;;;;;;;;;;;;;5095213;28;20290;-76
2022/02/19 06:03:49;;;;;;;;;;;;;;;;;;5094199;28;19916;-76
2022/02/19 06:06:21;;;;;;;;;;;;;;;;;;5095003;28;20015;-76
2022/02/19 06:08:47;;;;;;;;;;;;;;;;;;5094841;28;20413;-76
2022/02/19 06:11:13;;;;;;;;;;;;;;;;;;5095114;28;19915;-77
2022/02/19 06:13:58;;;;;;;;;;;;;;;;;;5096245;28;20504;-77
2022/02/19 06:16:28;;;;;;;;;;;;;;;;;;5094949;28;19985;-76
2022/02/19 06:19:01;;;;;;;;;;;;;;;;;;5094788;28;19916;-76
2022/02/19 06:21:26;;;;;;;;;;;;;;;;;;5094917;28;19916;-77
2022/02/19 06:23:51;;;;;;;;;;;;;;;;;;5094692;28;19923;-76
2022/02/19 06:26:17;;;;;;;;;;;;;;;;;;5078276;28;20331;-77
2022/02/19 06:29:09;;;;;;;;;;;;;;;;;;5093132;28;19948;-77
2022/02/19 06:31:37;;;;;;;;;;;;;;;;;;5094696;28;19916;-77
2022/02/19 06:34:03;;;;;;;;;;;;;;;;;;5094555;28;19970;-77
2022/02/19 06:36:28;;;;;;;;;;;;;;;;;;5094380;28;19916;-76
2022/02/19 06:38:54;;;;;;;;;;;;;;;;;;5094846;28;20010;-77
2022/02/19 06:41:26;;;;;;;;;;;;;;;;;;5094603;28;19916;-77
2022/02/19 06:43:59;;;;;;;;;;;;;;;;;;5094532;28;19915;-76
2022/02/19 06:46:28;;;;;;;;;;;;;;;;;;5093509;28;19916;-76
2022/02/19 06:48:54;;;;;;;;;;;;;;;;;;5094350;28;19922;-76
2022/02/19 06:51:21;;;;;;;;;;;;;;;;;;5093913;28;19928;-76
2022/02/19 06:53:47;;;;;;;;;;;;;;;;;;5077569;28;20085;-77
2022/02/19 06:56:16;;;;;;;;;;;;;;;;;;5094116;28;20281;-77
2022/02/19 06:58:42;;;;;;;;;;;;;;;;;;5094317;28;19920;-77
2022/02/19 07:01:07;;;;;;;;;;;;;;;;;;5094344;28;20384;-77
2022/02/19 07:03:32;;;;;;;;;;;;;;;;;;5093846;28;19916;-77
2022/02/19 07:06:15;;;;;;;;;;;;;;;;;;5093598;28;19923;-77
2022/02/19 07:08:40;;;;;;;;;;;;;;;;;;5093646;28;19916;-76
2022/02/19 07:11:09;;;;;;;;;;;;;;;;;;5093904;28;19916;-76
2022/02/19 07:13:36;;;;;;;;;;;;;;;;;;5094047;28;19927;-77
2022/02/19 07:16:02;;;;;;;;;;;;;;;;;;5092967;28;20328;-77
2022/02/19 07:18:39;;;;;;;;;;;;;;;;;;5078733;28;19962;-77
2022/02/19 07:21:09;;;;;;;;;;;;;;;;;;5093557;28;19920;-77
2022/02/19 07:23:35;;;;;;;;;;;;;;;;;;5093563;28;19916;-77
2022/02/19 07:26:00;;;;;;;;;;;;;;;;;;5091894;28;19927;-77
2022/02/19 07:28:29;;;;;;;;;;;;;;;;;;5086110;28;20322;-77
2022/02/19 07:30:55;;;;;;;;;;;;;;;;;;5082336;28;19916;-77
2022/02/19 07:33:21;;;;;;;;;;;;;;;;;;5094174;28;19931;-77
2022/02/19 07:35:51;;;;;;;;;;;;;;;;;;5097212;28;20362;-78
2022/02/19 07:38:20;;;;;;;;;;;;;;;;;;5097094;28;19920;-79
2022/02/19 07:40:45;;;;;;;;;;;;;;;;;;5094711;28;19916;-77
2022/02/19 07:43:11;;;;;;;;;;;;;;;;;;5097914;28;19926;-79
2022/02/19 07:45:55;;;;;;;;;;;;;;;;;;5098280;28;19966;-75
2022/02/19 07:48:44;;;;;;;;;;;;;;;;;;5086867;28;19916;-79
2022/02/19 08:00:06;;;;;;;;;;;;;;;;;;5094712;28;19916;-79
2022/02/19 08:02:40;;;;;;;;;;;;;;;;;;5096942;28;20380;-79
2022/02/19 08:05:05;;;;;;;;;;;;;;;;;;5096483;28;19924;-78
2022/02/19 08:07:31;;;;;;;;;;;;;;;;;;5096520;28;19940;-79
2022/02/19 08:09:56;;;;;;;;;;;;;;;;;;5097507;28;19916;-80
2022/02/19 08:12:22;;;;;;;;;;;;;;;;;;5080177;28;19916;-79
2022/02/19 08:14:48;;;;;;;;;;;;;;;;;;5098096;28;19927;-79
2022/02/19 08:17:13;;;;;;;;;;;;;;;;;;5086363;28;19916;-80
2022/02/19 08:19:39;;;;;;;;;;;;;;;;;;5096579;28;20011;-78
2022/02/19 08:22:04;;;;;;;;;;;;;;;;;;5096147;28;19916;-78
2022/02/19 08:24:29;;;;;;;;;;;;;;;;;;5099252;28;20029;-82
2022/02/19 08:26:54;;;;;;;;;;;;;;;;;;5099646;28;19923;-79
2022/02/19 08:29:20;;;;;;;;;;;;;;;;;;5096632;28;19923;-77
2022/02/19 08:31:46;;;;;;;;;;;;;;;;;;5093318;28;19920;-76
2022/02/19 08:34:11;;;;;;;;;;;;;;;;;;5094706;28;20027;-76
2022/02/19 08:36:36;;;;;;;;;;;;;;;;;;5094470;28;20398;-76
2022/02/19 08:39:02;;;;;;;;;;;;;;;;;;5094466;28;19962;-76
2022/02/19 08:41:28;;;;;;;;;;;;;;;;;;5094625;28;19916;-77
2022/02/19 08:43:54;;;;;;;;;;;;;;;;;;5093789;28;19916;-76
2022/02/19 08:46:20;;;;;;;;;;;;;;;;;;5094293;28;19916;-77
2022/02/19 08:48:45;;;;;;;;;;;;;;;;;;5094210;28;20014;-76
2022/02/19 08:51:10;;;;;;;;;;;;;;;;;;5094535;28;20386;-77
2022/02/19 08:53:36;;;;;;;;;;;;;;;;;;5095375;28;19924;-78
2022/02/19 08:56:01;;;;;;;;;;;;;;;;;;5094429;28;20442;-78
2022/02/19 08:58:26;;;;;;;;;;;;;;;;;;5095917;28;19968;-79
2022/02/19 09:00:52;;;;;;;;;;;;;;;;;;5094893;28;20010;-79
2022/02/19 09:03:17;;;;;;;;;;;;;;;;;;5095438;28;19916;-78
2022/02/19 09:05:44;;;;;;;;;;;;;;;;;;5095273;28;19999;-78
2022/02/19 09:08:09;;;;;;;;;;;;;;;;;;5093872;28;19923;-78
2022/02/19 09:10:35;;;;;;;;;;;;;;;;;;5098342;28;19991;-77
2022/02/19 09:13:01;;;;;;;;;;;;;;;;;;5096804;28;19969;-78
2022/02/19 09:15:27;;;;;;;;;;;;;;;;;;5098223;28;19963;-78
2022/02/19 09:17:52;;;;;;;;;;;;;;;;;;5098777;28;19919;-77
2022/02/19 09:20:19;;;;;;;;;;;;;;;;;;5097492;28;20024;-77
2022/02/19 09:22:45;;;;;;;;;;;;;;;;;;5098254;28;19920;-77
2022/02/19 09:25:11;;;;;;;;;;;;;;;;;;5097095;28;20273;-76
2022/02/19 09:27:37;;;;;;;;;;;;;;;;;;5098937;28;19916;-77
2022/02/19 09:30:03;;;;;;;;;;;;;;;;;;5097887;28;19923;-77
2022/02/19 09:32:29;;;;;;;;;;;;;;;;;;5081651;28;20419;-78
2022/02/19 09:34:54;;;;;;;;;;;;;;;;;;5078672;28;20007;-77
2022/02/19 09:37:20;;;;;;;;;;;;;;;;;;5077354;28;20363;-77
2022/02/19 09:39:46;;;;;;;;;;;;;;;;;;5076498;28;20011;-77
2022/02/19 09:42:11;;;;;;;;;;;;;;;;;;5077840;28;19921;-77
2022/02/19 09:44:37;;;;;;;;;;;;;;;;;;5078000;28;19917;-79
2022/02/19 09:47:02;;;;;;;;;;;;;;;;;;5077206;28;19993;-77
2022/02/19 09:49:28;;;;;;;;;;;;;;;;;;5077729;28;19923;-78
2022/02/19 09:51:55;;;;;;;;;;;;;;;;;;5077470;28;19924;-77
2022/02/19 09:54:21;;;;;;;;;;;;;;;;;;5076843;28;20259;-77
2022/02/19 09:56:46;;;;;;;;;;;;;;;;;;5076932;28;19924;-77
2022/02/19 09:59:12;;;;;;;;;;;;;;;;;;5077146;28;20434;-77
2022/02/19 10:01:39;;;;;;;;;;;;;;;;;;5086658;28;20428;-77
2022/02/19 10:04:06;;;;;;;;;;;;;;;;;;5097420;28;19916;-77
2022/02/19 10:06:36;;;;;;;;;;;;;;;;;;5096505;28;20409;-77
2022/02/19 10:09:08;;;;;;;;;;;;;;;;;;5097111;28;19920;-77
2022/02/19 10:11:34;;;;;;;;;;;;;;;;;;5096730;28;20311;-77
2022/02/19 10:13:59;;;;;;;;;;;;;;;;;;5096620;28;20006;-76
2022/02/19 10:16:26;;;;;;;;;;;;;;;;;;5096668;28;19922;-77
2022/02/19 10:18:51;;;;;;;;;;;;;;;;;;5096285;28;19942;-77
2022/02/19 10:21:17;;;;;;;;;;;;;;;;;;5095678;28;19916;-79
2022/02/19 10:23:43;;;;;;;;;;;;;;;;;;5098246;28;19916;-78
2022/02/19 10:26:08;;;;;;;;;;;;;;;;;;5098019;28;19923;-79
2022/02/19 10:28:34;;;;;;;;;;;;;;;;;;5096485;28;20312;-76
2022/02/19 10:31:09;;;;;;;;;;;;;;;;;;5097189;28;19916;-80
2022/02/19 10:33:34;;;;;;;;;;;;;;;;;;5096829;28;20015;-78
2022/02/19 10:36:00;;;;;;;;;;;;;;;;;;5098889;28;19962;-80
2022/02/19 10:38:26;;;;;;;;;;;;;;;;;;5101412;28;20012;-82
2022/02/19 10:40:52;;;;;;;;;;;;;;;;;;5097196;28;19968;-78
2022/02/19 10:43:22;;;;;;;;;;;;;;;;;;5099136;28;19916;-78
2022/02/19 10:45:55;;;;;;;;;;;;;;;;;;5097548;28;20007;-78
2022/02/19 10:48:25;;;;;;;;;;;;;;;;;;5096219;28;20061;-77
2022/02/19 10:50:50;;;;;;;;;;;;;;;;;;5096449;28;20018;-77
2022/02/19 10:53:20;;;;;;;;;;;;;;;;;;5093701;28;20057;-75
2022/02/19 10:55:45;;;;;;;;;;;;;;;;;;5095139;28;19916;-76
2022/02/19 10:58:11;;;;;;;;;;;;;;;;;;5096618;28;20036;-76
2022/02/19 11:00:36;;;;;;;;;;;;;;;;;;5095811;28;19984;-76
2022/02/19 11:03:03;;;;;;;;;;;;;;;;;;5095264;28;20003;-78
2022/02/19 11:05:29;;;;;;;;;;;;;;;;;;5095111;28;19916;-76
2022/02/19 11:07:55;;;;;;;;;;;;;;;;;;5094104;28;19916;-78
2022/02/19 11:10:22;;;;;;;;;;;;;;;;;;5083089;28;19916;-78
2022/02/19 11:12:47;;;;;;;;;;;;;;;;;;5084514;28;20003;-80
2022/02/19 11:15:14;;;;;;;;;;;;;;;;;;5089043;28;20322;-80
2022/02/19 11:17:40;;;;;;;;;;;;;;;;;;5097542;28;20430;-79
2022/02/19 11:20:07;;;;;;;;;;;;;;;;;;5097026;28;19917;-78
2022/02/19 11:22:33;;;;;;;;;;;;;;;;;;5099615;28;19923;-80
2022/02/19 11:25:00;;;;;;;;;;;;;;;;;;5097060;28;20343;-80
2022/02/19 11:27:26;;;;;;;;;;;;;;;;;;5095580;28;19915;-76
2022/02/19 11:29:53;;;;;;;;;;;;;;;;;;5094551;28;19951;-77
2022/02/19 11:32:18;;;;;;;;;;;;;;;;;;5094636;28;20318;-78
2022/02/19 11:34:48;;;;;;;;;;;;;;;;;;5093917;28;19927;-76
2022/02/19 11:37:20;;;;;;;;;;;;;;;;;;5093869;28;20262;-76
2022/02/19 11:40:03;;;;;;;;;;;;;;;;;;5094915;28;20329;-77
2022/02/19 11:42:55;;;;;;;;;;;;;;;;;;5094936;28;19916;-76
2022/02/19 11:45:20;;;;;;;;;;;;;;;;;;5091585;28;19966;-74
2022/02/19 11:47:46;;;;;;;;;;;;;;;;;;5094720;28;19923;-75
2022/02/19 11:50:25;;;;;;;;;;;;;;;;;;5093365;28;20396;-75
2022/02/19 11:53:09;;;;;;;;;;;;;;;;;;5092822;28;19920;-75
2022/02/19 11:55:42;;;;;;;;;;;;;;;;;;5094432;28;20385;-75
2022/02/19 11:58:08;;;;;;;;;;;;;;;;;;5094555;28;19923;-75
2022/02/19 12:00:50;;;;;;;;;;;;;;;;;;5093462;28;19916;-75
2022/02/19 12:03:26;;;;;;;;;;;;;;;;;;5094348;28;19958;-75
2022/02/19 12:06:04;;;;;;;;;;;;;;;;;;5094252;28;19927;-74
2022/02/19 12:08:48;;;;;;;;;;;;;;;;;;5094341;28;19927;-75
2022/02/19 12:11:14;;;;;;;;;;;;;;;;;;5094132;28;19952;-75
2022/02/19 12:13:44;;;;;;;;;;;;;;;;;;5093404;28;19919;-75
2022/02/19 12:16:27;;;;;;;;;;;;;;;;;;5094125;28;19920;-75
2022/02/19 12:18:54;;;;;;;;;;;;;;;;;;5094132;28;19916;-75
2022/02/19 12:21:34;;;;;;;;;;;;;;;;;;5093988;28;19912;-75
2022/02/19 12:24:21;;;;;;;;;;;;;;;;;;5093622;28;19970;-75
2022/02/19 12:26:55;;;;;;;;;;;;;;;;;;5092797;28;20452;-75
2022/02/19 12:29:27;;;;;;;;;;;;;;;;;;5094206;28;20301;-75
2022/02/19 12:32:11;;;;;;;;;;;;;;;;;;5093226;28;19916;-75
2022/02/19 12:34:37;;;;;;;;;;;;;;;;;;5092630;28;19922;-75
2022/02/19 12:37:05;;;;;;;;;;;;;;;;;;5092612;28;19920;-74
2022/02/19 12:39:33;;;;;;;;;;;;;;;;;;5093833;28;20533;-75
2022/02/19 12:41:58;;;;;;;;;;;;;;;;;;5093794;28;20320;-75
2022/02/19 12:44:24;;;;;;;;;;;;;;;;;;5093875;28;19970;-75
2022/02/19 12:46:53;;;;;;;;;;;;;;;;;;5075629;28;20331;-75
2022/02/19 12:49:19;;;;;;;;;;;;;;;;;;5093909;28;20365;-75
2022/02/19 12:51:45;;;;;;;;;;;;;;;;;;5093660;28;19923;-74
2022/02/19 12:54:10;;;;;;;;;;;;;;;;;;5093593;28;19920;-75
2022/02/19 12:56:42;;;;;;;;;;;;;;;;;;5093769;28;20010;-75
2022/02/19 12:59:08;;;;;;;;;;;;;;;;;;5093628;28;20361;-75
2022/02/19 13:01:33;;;;;;;;;;;;;;;;;;5092798;28;19941;-75
2022/02/19 13:03:59;;;;;;;;;;;;;;;;;;5093701;28;19923;-75
2022/02/19 13:06:25;;;;;;;;;;;;;;;;;;5093575;28;19973;-75
2022/02/19 13:09:00;;;;;;;;;;;;;;;;;;5093595;28;19916;-75
2022/02/19 13:11:26;;;;;;;;;;;;;;;;;;5092144;28;19923;-75
2022/02/19 13:13:51;;;;;;;;;;;;;;;;;;5093421;28;19930;-74
2022/02/19 13:16:20;;;;;;;;;;;;;;;;;;5093626;28;19916;-75
2022/02/19 13:18:46;;;;;;;;;;;;;;;;;;5093661;28;19920;-74
2022/02/19 13:21:15;;;;;;;;;;;;;;;;;;5093997;28;19920;-75
2022/02/19 13:23:42;;;;;;;;;;;;;;;;;;5093627;28;20026;-76
2022/02/19 13:26:23;;;;;;;;;;;;;;;;;;5093351;28;19917;-76
2022/02/19 13:29:00;;;;;;;;;;;;;;;;;;5093388;28;19916;-75
2022/02/19 13:31:26;;;;;;;;;;;;;;;;;;5092114;28;19923;-74
2022/02/19 13:33:52;;;;;;;;;;;;;;;;;;5073069;28;19924;-75
2022/02/19 13:36:19;;;;;;;;;;;;;;;;;;5072990;28;20018;-75
2022/02/19 13:38:45;;;;;;;;;;;;;;;;;;5073099;28;19923;-76
2022/02/19 13:41:10;;;;;;;;;;;;;;;;;;5073152;28;19917;-75
2022/02/19 13:43:36;;;;;;;;;;;;;;;;;;5087057;28;19916;-75
2022/02/19 13:46:11;;;;;;;;;;;;;;;;;;5093458;28;19920;-76
2022/02/19 13:48:36;;;;;;;;;;;;;;;;;;5091846;28;20289;-76
2022/02/19 13:51:04;;;;;;;;;;;;;;;;;;5092951;28;19927;-76
2022/02/19 13:53:30;;;;;;;;;;;;;;;;;;5093422;28;20319;-76
2022/02/19 13:55:57;;;;;;;;;;;;;;;;;;5094698;28;19916;-76
2022/02/19 13:58:28;;;;;;;;;;;;;;;;;;5096849;28;20292;-76
2022/02/19 14:00:58;;;;;;;;;;;;;;;;;;5096489;28;19916;-75
2022/02/19 14:03:24;;;;;;;;;;;;;;;;;;5096596;28;19981;-75
2022/02/19 14:05:50;;;;;;;;;;;;;;;;;;5096690;28;19916;-75
2022/02/19 14:08:16;;;;;;;;;;;;;;;;;;5096020;28;19923;-76
2022/02/19 14:10:53;;;;;;;;;;;;;;;;;;5096653;28;19926;-75
2022/02/19 14:13:19;;;;;;;;;;;;;;;;;;5096240;28;20019;-76
2022/02/19 14:15:47;;;;;;;;;;;;;;;;;;5078654;28;19962;-75
2022/02/19 14:18:14;;;;;;;;;;;;;;;;;;5096510;28;20324;-75
2022/02/19 14:20:41;;;;;;;;;;;;;;;;;;5096247;28;20396;-75
2022/02/19 14:23:12;;;;;;;;;;;;;;;;;;5096318;28;20010;-74
2022/02/19 14:25:41;;;;;;;;;;;;;;;;;;5091490;28;19916;-75
2022/02/19 14:28:06;;;;;;;;;;;;;;;;;;5085055;28;19927;-75
2022/02/19 14:30:36;;;;;;;;;;;;;;;;;;5083063;28;19912;-75
2022/02/19 14:33:04;;;;;;;;;;;;;;;;;;5081520;28;20337;-74
2022/02/19 14:35:29;;;;;;;;;;;;;;;;;;5079028;28;19924;-75
2022/02/19 14:37:55;;;;;;;;;;;;;;;;;;5083368;28;19916;-75
2022/02/19 14:40:21;;;;;;;;;;;;;;;;;;5086275;28;19916;-75
2022/02/19 14:42:47;;;;;;;;;;;;;;;;;;5085228;28;19939;-75
2022/02/19 14:45:12;;;;;;;;;;;;;;;;;;5084687;28;19923;-75
2022/02/19 14:47:39;;;;;;;;;;;;;;;;;;5086442;28;19916;-75
2022/02/19 14:50:05;;;;;;;;;;;;;;;;;;5086341;28;19920;-75
2022/02/19 14:52:31;;;;;;;;;;;;;;;;;;5085077;28;19970;-76
2022/02/19 14:54:58;;;;;;;;;;;;;;;;;;5084065;28;19924;-75
2022/02/19 14:57:23;;;;;;;;;;;;;;;;;;5077419;28;20455;-75
2022/02/19 14:59:48;;;;;;;;;;;;;;;;;;5090814;28;19916;-75
2022/02/19 15:02:14;;;;;;;;;;;;;;;;;;5095614;28;20280;-75
2022/02/19 15:04:39;;;;;;;;;;;;;;;;;;5095578;28;20346;-75
2022/02/19 15:07:05;;;;;;;;;;;;;;;;;;5083217;28;20321;-75
2022/02/19 15:09:30;;;;;;;;;;;;;;;;;;5075248;28;19916;-75
2022/02/19 15:11:56;;;;;;;;;;;;;;;;;;5081008;28;19998;-75
2022/02/19 15:14:22;;;;;;;;;;;;;;;;;;5095368;28;19931;-75
2022/02/19 15:16:49;;;;;;;;;;;;;;;;;;5093833;28;19916;-75
2022/02/19 15:19:15;;;;;;;;;;;;;;;;;;5094203;28;20366;-75
2022/02/19 15:21:41;;;;;;;;;;;;;;;;;;5093715;28;19916;-75
2022/02/19 15:24:06;;;;;;;;;;;;;;;;;;5094171;28;19916;-75
2022/02/19 15:26:31;;;;;;;;;;;;;;;;;;5094022;28;19959;-75
2022/02/19 15:28:57;;;;;;;;;;;;;;;;;;5094812;28;19920;-75
2022/02/19 15:31:23;;;;;;;;;;;;;;;;;;5084686;28;19917;-75
2022/02/19 15:33:48;;;;;;;;;;;;;;;;;;5074737;28;20298;-75
2022/02/19 15:36:14;;;;;;;;;;;;;;;;;;5084177;28;20007;-75
2022/02/19 15:38:39;;;;;;;;;;;;;;;;;;5076763;28;19916;-75
2022/02/19 15:41:05;;;;;;;;;;;;;;;;;;5093814;28;19927;-75
2022/02/19 15:43:31;;;;;;;;;;;;;;;;;;5089937;28;19970;-75
2022/02/19 15:45:57;;;;;;;;;;;;;;;;;;5083111;28;20007;-75
2022/02/19 15:48:22;;;;;;;;;;;;;;;;;;5083807;28;20420;-75
2022/02/19 15:50:48;;;;;;;;;;;;;;;;;;5082885;28;19956;-75
2022/02/19 15:53:13;;;;;;;;;;;;;;;;;;5082688;28;19920;-75
2022/02/19 15:55:39;;;;;;;;;;;;;;;;;;5093108;28;19920;-75
2022/02/19 15:58:05;;;;;;;;;;;;;;;;;;5093571;28;19916;-75
2022/02/19 16:00:31;;;;;;;;;;;;;;;;;;5093081;28;20003;-75
2022/02/19 16:02:56;;;;;;;;;;;;;;;;;;5093291;28;19956;-75
2022/02/19 16:05:22;;;;;;;;;;;;;;;;;;5093453;28;19927;-75
2022/02/19 16:07:48;;;;;;;;;;;;;;;;;;5094200;28;19922;-75
2022/02/19 16:10:13;;;;;;;;;;;;;;;;;;5092549;28;19920;-75
2022/02/19 16:12:38;;;;;;;;;;;;;;;;;;5092474;28;20038;-75
2022/02/19 16:15:04;;;;;;;;;;;;;;;;;;5093772;28;19920;-75
2022/02/19 16:17:31;;;;;;;;;;;;;;;;;;5075575;28;20298;-75
2022/02/19 16:19:56;;;;;;;;;;;;;;;;;;5094078;28;19916;-75
2022/02/19 16:22:22;;;;;;;;;;;;;;;;;;5093913;28;19916;-75
2022/02/19 16:24:47;;;;;;;;;;;;;;;;;;5094123;28;19960;-75
2022/02/19 16:27:13;;;;;;;;;;;;;;;;;;5092470;28;19920;-75
2022/02/19 16:29:38;;;;;;;;;;;;;;;;;;5092996;28;20003;-75
2022/02/19 16:32:04;;;;;;;;;;;;;;;;;;5092885;28;19916;-75
2022/02/19 16:34:29;;;;;;;;;;;;;;;;;;5093817;28;20423;-75
2022/02/19 16:36:54;;;;;;;;;;;;;;;;;;5093805;28;19936;-75
2022/02/19 16:39:23;;;;;;;;;;;;;;;;;;5093826;28;19916;-75
2022/02/19 16:41:48;;;;;;;;;;;;;;;;;;5075617;28;20006;-75
2022/02/19 16:44:13;;;;;;;;;;;;;;;;;;5093115;28;19916;-75
2022/02/19 16:46:39;;;;;;;;;;;;;;;;;;5092959;28;19916;-75
2022/02/19 16:49:04;;;;;;;;;;;;;;;;;;5092519;28;19916;-75
2022/02/19 16:51:29;;;;;;;;;;;;;;;;;;5092351;28;19927;-75
2022/02/19 16:53:55;;;;;;;;;;;;;;;;;;5093744;28;20011;-75
2022/02/19 16:56:22;;;;;;;;;;;;;;;;;;5092667;28;19977;-75
2022/02/19 16:58:48;;;;;;;;;;;;;;;;;;5093671;28;19916;-75